Time;durP1;ratioP1;P1;durP2;ratioP2;P2;SDS_P1;SDS_P2;PMS_P1;PMS_P2;Temp;Humidity;BMP_temperature;BMP_pressure;BME280_temperature;BME280_humidity;BME280_pressure;Samples;Min_cycle;Max_cycle;Signal;HPM_P1;HPM_P2
2022/04/19 00:00:34;;;;;;;7.10;3.40;;;8.60;88.00;;;;;;5073425;28;20205;-89
2022/04/19 00:03:03;;;;;;;3.00;2.80;;;8.60;87.40;;;;;;5073834;28;20292;-88
2022/04/19 00:05:32;;;;;;;3.55;3.30;;;8.60;87.80;;;;;;5073475;28;20252;-90
2022/04/19 00:08:00;;;;;;;2.92;2.70;;;8.60;88.50;;;;;;5073793;28;20232;-89
2022/04/19 00:10:29;;;;;;;2.85;2.65;;;8.60;86.50;;;;;;5073788;28;20201;-88
2022/04/19 00:13:00;;;;;;;4.05;3.00;;;8.60;86.50;;;;;;5073905;28;20237;-89
2022/04/19 00:15:32;;;;;;;3.13;2.88;;;8.60;85.60;;;;;;5073984;28;20213;-89
2022/04/19 00:18:02;;;;;;;4.22;3.08;;;8.50;86.60;;;;;;5073818;28;20303;-89
2022/04/19 00:20:32;;;;;;;2.70;2.45;;;8.50;88.40;;;;;;5073548;28;20228;-89
2022/04/19 00:23:03;;;;;;;2.75;2.55;;;8.50;86.80;;;;;;5073800;28;20209;-89
2022/04/19 00:25:31;;;;;;;2.40;2.20;;;8.50;88.00;;;;;;5073362;28;20224;-89
2022/04/19 00:28:01;;;;;;;3.92;3.50;;;8.50;88.80;;;;;;5073815;28;20268;-89
2022/04/19 00:30:29;;;;;;;3.65;3.35;;;8.50;87.80;;;;;;5073204;28;20267;-89
2022/04/19 00:32:58;;;;;;;2.75;2.55;;;8.60;88.50;;;;;;5073484;28;20277;-89
2022/04/19 00:35:27;;;;;;;2.83;2.63;;;8.50;86.40;;;;;;5072548;28;20249;-89
2022/04/19 00:37:55;;;;;;;3.33;3.03;;;8.50;88.40;;;;;;5073441;28;20232;-89
2022/04/19 00:40:24;;;;;;;3.03;2.83;;;8.50;88.70;;;;;;5073489;28;20273;-89
2022/04/19 00:42:53;;;;;;;3.47;3.03;;;8.50;90.10;;;;;;5073499;28;20292;-88
2022/04/19 00:45:24;;;;;;;2.65;2.45;;;8.50;90.70;;;;;;5073134;28;20316;-89
2022/04/19 00:47:52;;;;;;;5.03;3.28;;;8.40;90.80;;;;;;5073302;28;20209;-88
2022/04/19 00:50:22;;;;;;;2.92;2.67;;;8.30;91.80;;;;;;5072670;28;20205;-89
2022/04/19 00:52:50;;;;;;;4.18;3.13;;;8.20;90.80;;;;;;5072874;28;20235;-89
2022/04/19 00:55:19;;;;;;;2.45;2.22;;;8.20;90.70;;;;;;5073048;28;20255;-89
2022/04/19 00:57:48;;;;;;;2.40;2.30;;;8.10;90.50;;;;;;5073082;28;20201;-88
2022/04/19 01:00:17;;;;;;;4.38;3.28;;;8.10;90.20;;;;;;5072966;28;20209;-88
2022/04/19 01:02:47;;;;;;;3.97;2.70;;;8.10;89.80;;;;;;5072623;28;20317;-89
2022/04/19 01:05:16;;;;;;;4.97;2.83;;;8.10;90.90;;;;;;5072379;28;20244;-89
2022/04/19 01:07:47;;;;;;;3.25;2.88;;;8.10;91.70;;;;;;5073185;28;20285;-89
2022/04/19 01:10:15;;;;;;;3.08;2.65;;;8.10;92.30;;;;;;5072921;28;20220;-89
2022/04/19 01:15:29;;;;;;;3.00;2.70;;;8.00;93.10;;;;;;5072944;28;20224;-89
2022/04/19 01:18:02;;;;;;;3.45;3.00;;;8.00;93.10;;;;;;5072891;28;20216;-89
2022/04/19 01:20:31;;;;;;;2.58;2.38;;;8.00;93.70;;;;;;5072676;28;20212;-90
2022/04/19 01:23:01;;;;;;;3.10;2.88;;;8.00;93.90;;;;;;5072751;28;20274;-89
2022/04/19 01:25:30;;;;;;;3.42;2.65;;;8.00;93.40;;;;;;5072549;28;20248;-90
2022/04/19 01:27:58;;;;;;;3.10;2.80;;;8.10;93.30;;;;;;5072532;28;20234;-89
2022/04/19 01:30:27;;;;;;;2.50;2.30;;;8.10;93.10;;;;;;5072424;28;20209;-89
2022/04/19 01:32:55;;;;;;;2.95;2.65;;;8.10;93.60;;;;;;5072838;28;20205;-90
2022/04/19 01:35:24;;;;;;;3.20;2.13;;;8.10;93.50;;;;;;5072541;28;20208;-89
2022/04/19 01:37:52;;;;;;;3.40;2.35;;;8.10;91.70;;;;;;5073248;28;20208;-90
2022/04/19 01:40:22;;;;;;;2.80;2.60;;;8.10;91.20;;;;;;5072493;28;20205;-89
2022/04/19 01:42:52;;;;;;;2.03;1.92;;;8.30;87.70;;;;;;5072500;28;20229;-89
2022/04/19 01:45:24;;;;;;;2.40;2.22;;;8.40;86.50;;;;;;5072806;28;20260;-89
2022/04/19 01:47:53;;;;;;;2.78;2.58;;;8.40;91.00;;;;;;5072416;28;20201;-89
2022/04/19 01:50:23;;;;;;;3.97;2.35;;;8.40;91.10;;;;;;5072839;28;20227;-89
2022/04/19 01:52:52;;;;;;;4.25;3.85;;;8.40;91.90;;;;;;5073031;28;20225;-89
2022/04/19 01:55:22;;;;;;;2.72;2.53;;;8.30;91.90;;;;;;5072442;28;20197;-90
2022/04/19 01:57:55;;;;;;;2.92;2.65;;;8.30;91.90;;;;;;5072496;28;20225;-90
2022/04/19 02:00:25;;;;;;;2.97;2.30;;;8.30;92.60;;;;;;5072296;28;20201;-89
2022/04/19 02:02:55;;;;;;;2.85;2.42;;;8.30;92.80;;;;;;5074875;28;20205;-89
2022/04/19 02:05:24;;;;;;;4.70;2.70;;;8.30;92.60;;;;;;5076189;28;20243;-89
2022/04/19 02:07:53;;;;;;;2.67;2.45;;;8.30;92.40;;;;;;5076413;28;20201;-89
2022/04/19 02:10:23;;;;;;;2.75;2.53;;;8.30;92.20;;;;;;5075623;28;20296;-89
2022/04/19 02:12:51;;;;;;;3.88;2.75;;;8.30;91.90;;;;;;5076183;28;20243;-89
2022/04/19 02:15:20;;;;;;;2.83;2.50;;;8.30;91.50;;;;;;5076038;28;20205;-90
2022/04/19 02:17:50;;;;;;;4.28;3.65;;;8.30;92.10;;;;;;5076062;28;20262;-89
2022/04/19 02:20:19;;;;;;;3.17;2.97;;;8.30;94.30;;;;;;5075928;28;20209;-90
2022/04/19 02:22:48;;;;;;;3.53;3.22;;;8.40;94.80;;;;;;5075674;28;20255;-89
2022/04/19 02:25:18;;;;;;;3.30;3.00;;;8.30;95.80;;;;;;5075731;28;20258;-89
2022/04/19 02:27:48;;;;;;;12.15;3.22;;;8.30;95.70;;;;;;5075723;28;20228;-90
2022/04/19 02:30:17;;;;;;;3.63;3.33;;;8.30;94.50;;;;;;5075735;28;20235;-89
2022/04/19 02:32:47;;;;;;;4.43;3.63;;;8.30;94.70;;;;;;5076105;28;20244;-89
2022/04/19 02:35:17;;;;;;;3.00;2.80;;;8.30;95.40;;;;;;5076062;28;20240;-89
2022/04/19 02:37:50;;;;;;;3.25;2.88;;;8.30;95.60;;;;;;5075917;28;20201;-89
2022/04/19 02:40:19;;;;;;;3.25;2.95;;;8.30;95.70;;;;;;5075579;28;20205;-88
2022/04/19 02:42:50;;;;;;;2.95;2.75;;;8.30;95.20;;;;;;5075638;28;20279;-89
2022/04/19 02:45:20;;;;;;;3.00;2.80;;;8.30;95.50;;;;;;5076127;28;20193;-89
2022/04/19 02:47:51;;;;;;;6.10;3.90;;;8.40;95.60;;;;;;5075661;28;20205;-89
2022/04/19 02:50:20;;;;;;;2.92;2.72;;;8.30;94.70;;;;;;5075433;28;20205;-89
2022/04/19 02:52:48;;;;;;;3.47;3.13;;;8.40;93.80;;;;;;5075647;28;20213;-89
2022/04/19 02:55:17;;;;;;;3.38;3.17;;;8.30;93.70;;;;;;5075449;28;20312;-89
2022/04/19 02:57:45;;;;;;;4.00;2.83;;;8.30;93.60;;;;;;5075112;28;20209;-89
2022/04/19 03:00:16;;;;;;;2.92;2.72;;;8.30;93.50;;;;;;5074803;28;20205;-89
2022/04/19 03:02:44;;;;;;;3.92;3.50;;;8.30;94.30;;;;;;5074654;28;20297;-89
2022/04/19 03:05:13;;;;;;;3.10;2.80;;;8.30;93.70;;;;;;5074978;28;20236;-90
2022/04/19 03:07:41;;;;;;;2.50;2.30;;;8.30;93.30;;;;;;5074323;28;20241;-88
2022/04/19 03:10:10;;;;;;;6.68;3.08;;;8.30;93.70;;;;;;5074519;28;20304;-89
2022/04/19 03:12:39;;;;;;;3.28;3.00;;;8.30;93.20;;;;;;5074280;28;20275;-89
2022/04/19 03:15:10;;;;;;;3.70;3.35;;;8.30;93.40;;;;;;5074135;28;20200;-89
2022/04/19 03:17:40;;;;;;;4.97;3.40;;;8.30;93.90;;;;;;5075059;28;20257;-89
2022/04/19 03:20:11;;;;;;;3.20;2.90;;;8.30;93.30;;;;;;5074614;28;20212;-89
2022/04/19 03:28:11;;;;;;;3.35;2.90;;;8.20;93.90;;;;;;5074689;28;20295;-89
2022/04/19 03:30:40;;;;;;;3.50;3.20;;;8.20;94.40;;;;;;5073880;28;20267;-89
2022/04/19 03:33:10;;;;;;;3.00;2.80;;;8.20;93.50;;;;;;5074529;28;20244;-89
2022/04/19 03:35:38;;;;;;;3.00;2.60;;;8.20;93.80;;;;;;5074771;28;20216;-90
2022/04/19 03:38:07;;;;;;;3.17;2.78;;;8.20;93.80;;;;;;5074207;28;20224;-89
2022/04/19 03:40:36;;;;;;;2.88;2.63;;;8.20;93.80;;;;;;5073975;28;20205;-90
2022/04/19 03:43:07;;;;;;;3.60;2.50;;;8.20;94.30;;;;;;5074030;28;20205;-90
2022/04/19 03:45:36;;;;;;;2.60;2.40;;;8.20;94.20;;;;;;5074315;28;20277;-89
2022/04/19 03:48:05;;;;;;;2.65;2.45;;;8.20;95.00;;;;;;5073951;28;20293;-90
2022/04/19 03:50:35;;;;;;;2.80;2.60;;;8.20;93.50;;;;;;5073973;28;20212;-89
2022/04/19 03:53:04;;;;;;;2.97;2.67;;;8.10;93.70;;;;;;5073473;28;20232;-89
2022/04/19 03:55:32;;;;;;;3.10;2.90;;;8.20;93.40;;;;;;5073870;28;20209;-89
2022/04/19 03:58:03;;;;;;;2.83;2.63;;;8.10;93.20;;;;;;5073730;28;20197;-88
2022/04/19 04:00:31;;;;;;;3.13;2.78;;;8.10;93.80;;;;;;5073642;28;20197;-89
2022/04/19 04:03:01;;;;;;;3.30;2.72;;;8.10;93.80;;;;;;5073918;28;20266;-88
2022/04/19 04:05:30;;;;;;;2.72;2.53;;;8.10;94.00;;;;;;5073880;28;20209;-88
2022/04/19 04:08:00;;;;;;;2.75;2.55;;;8.10;94.70;;;;;;5072950;28;20283;-88
2022/04/19 04:10:29;;;;;;;2.70;2.50;;;8.10;94.80;;;;;;5073538;28;20763;-89
2022/04/19 04:12:59;;;;;;;4.65;3.05;;;8.10;95.30;;;;;;5073914;28;20201;-89
2022/04/19 04:15:28;;;;;;;3.17;2.88;;;8.10;96.00;;;;;;5073777;28;20215;-88
2022/04/19 04:17:57;;;;;;;3.67;3.17;;;8.00;96.70;;;;;;5073397;28;20331;-89
2022/04/19 04:20:25;;;;;;;5.35;2.90;;;8.00;98.20;;;;;;5072872;28;20201;-89
2022/04/19 04:22:53;;;;;;;3.33;2.40;;;8.00;98.10;;;;;;5073522;28;20241;-90
2022/04/19 04:25:23;;;;;;;2.88;2.67;;;8.00;98.00;;;;;;5073132;28;20213;-89
2022/04/19 04:27:52;;;;;;;3.03;2.83;;;8.00;97.60;;;;;;5073193;28;20248;-89
2022/04/19 04:30:20;;;;;;;4.15;3.13;;;8.00;97.30;;;;;;5072904;28;20251;-89
2022/04/19 04:32:48;;;;;;;3.25;2.95;;;8.00;98.50;;;;;;5073308;28;20296;-89
2022/04/19 04:35:17;;;;;;;2.90;2.70;;;8.00;97.30;;;;;;5072838;28;20209;-90
2022/04/19 04:37:45;;;;;;;3.13;2.60;;;8.00;97.70;;;;;;5072853;28;20205;-90
2022/04/19 04:40:14;;;;;;;3.25;3.05;;;8.00;97.00;;;;;;5072872;28;20233;-90
2022/04/19 04:42:44;;;;;;;3.00;2.53;;;8.10;97.10;;;;;;5073054;28;20229;-90
2022/04/19 04:45:12;;;;;;;2.67;2.50;;;8.10;97.30;;;;;;5072851;28;20230;-90
2022/04/19 04:50:26;;;;;;;3.90;3.10;;;8.10;97.00;;;;;;5072943;28;20227;-90
2022/04/19 04:52:55;;;;;;;3.20;3.00;;;8.20;96.90;;;;;;5072916;28;20209;-90
2022/04/19 04:55:24;;;;;;;4.97;3.47;;;8.20;97.00;;;;;;5072679;28;20221;-90
2022/04/19 04:57:57;;;;;;;3.47;3.17;;;8.20;96.70;;;;;;5072945;28;20196;-89
2022/04/19 05:00:26;;;;;;;3.65;3.33;;;8.30;96.90;;;;;;5072889;28;20201;-90
2022/04/19 05:02:55;;;;;;;2.95;2.75;;;8.30;97.00;;;;;;5072914;28;20236;-90
2022/04/19 05:05:23;;;;;;;3.72;3.28;;;8.30;96.90;;;;;;5072918;28;20205;-90
2022/04/19 05:07:52;;;;;;;3.83;3.40;;;8.30;96.80;;;;;;5072551;28;20229;-91
2022/04/19 05:10:20;;;;;;;5.65;3.40;;;8.30;97.10;;;;;;5072473;28;20216;-90
2022/04/19 05:12:49;;;;;;;3.08;2.78;;;8.30;97.00;;;;;;5072301;28;20201;-90
2022/04/19 05:15:19;;;;;;;3.75;3.45;;;8.30;97.00;;;;;;5072511;28;20209;-90
2022/04/19 05:17:48;;;;;;;3.45;3.15;;;8.30;97.60;;;;;;5073068;28;20205;-90
2022/04/19 05:20:16;;;;;;;4.82;3.03;;;8.40;97.80;;;;;;5072453;28;20259;-89
2022/04/19 05:22:45;;;;;;;2.53;2.33;;;8.40;97.30;;;;;;5072179;28;20233;-89
2022/04/19 05:25:13;;;;;;;3.90;3.60;;;8.40;98.00;;;;;;5072444;28;20202;-90
2022/04/19 05:27:42;;;;;;;3.25;2.78;;;8.30;97.80;;;;;;5072418;28;20285;-90
2022/04/19 05:30:11;;;;;;;4.15;2.97;;;8.40;98.10;;;;;;5072272;28;20216;-90
2022/04/19 05:32:41;;;;;;;2.95;2.75;;;8.40;98.20;;;;;;5072867;28;20232;-90
2022/04/19 05:35:10;;;;;;;3.28;3.08;;;8.40;98.20;;;;;;5072313;28;20236;-90
2022/04/19 05:37:38;;;;;;;2.95;2.75;;;8.50;98.70;;;;;;5074629;28;20289;-90
2022/04/19 05:40:07;;;;;;;4.22;3.38;;;8.50;99.90;;;;;;5076495;28;20233;-90
2022/04/19 05:42:36;;;;;;;4.30;3.95;;;8.50;99.80;;;;;;5076354;28;20251;-90
2022/04/19 05:45:05;;;;;;;3.70;3.40;;;8.50;99.50;;;;;;5076484;28;20312;-89
2022/04/19 05:47:35;;;;;;;3.72;3.42;;;8.50;99.90;;;;;;5076697;28;20221;-90
2022/04/19 05:50:05;;;;;;;3.13;2.92;;;8.50;99.90;;;;;;5076205;28;20205;-90
2022/04/19 05:52:34;;;;;;;3.55;2.97;;;8.60;99.90;;;;;;5075900;28;20224;-89
2022/04/19 05:55:02;;;;;;;4.07;3.40;;;8.60;99.90;;;;;;5076217;28;20227;-90
2022/04/19 05:57:31;;;;;;;3.75;3.40;;;8.60;99.80;;;;;;5076111;28;20194;-90
2022/04/19 05:59:59;;;;;;;2.50;2.40;;;8.60;99.80;;;;;;5076357;28;20229;-88
2022/04/19 06:05:15;;;;;;;3.63;3.28;;;8.70;98.40;;;;;;5076365;28;20205;-88
2022/04/19 06:07:44;;;;;;;3.40;3.10;;;8.60;98.10;;;;;;5075845;28;20212;-88
2022/04/19 06:10:14;;;;;;;3.83;3.35;;;8.60;99.00;;;;;;5075550;28;20273;-89
2022/04/19 06:12:42;;;;;;;3.30;3.00;;;8.60;98.70;;;;;;5075411;28;20243;-88
2022/04/19 06:15:11;;;;;;;3.58;3.28;;;8.70;99.40;;;;;;5075967;28;20213;-88
2022/04/19 06:17:40;;;;;;;3.78;3.47;;;8.70;99.00;;;;;;5075524;28;20288;-89
2022/04/19 06:20:09;;;;;;;3.95;3.55;;;8.60;99.20;;;;;;5075936;28;20204;-89
2022/04/19 06:22:39;;;;;;;3.00;2.75;;;8.60;99.90;;;;;;5075163;28;20370;-88
2022/04/19 06:25:08;;;;;;;9.35;3.33;;;8.60;99.90;;;;;;5075816;28;20235;-88
2022/04/19 06:27:37;;;;;;;3.20;2.97;;;8.60;99.90;;;;;;5075377;28;20228;-88
2022/04/19 06:30:07;;;;;;;2.92;2.72;;;8.60;99.90;;;;;;5075539;28;20209;-88
2022/04/19 06:32:36;;;;;;;3.65;3.35;;;8.50;99.90;;;;;;5075368;28;20228;-88
2022/04/19 06:35:05;;;;;;;5.07;3.55;;;8.40;99.90;;;;;;5075485;28;20259;-88
2022/04/19 06:37:33;;;;;;;3.60;2.97;;;8.40;99.90;;;;;;5075488;28;20201;-88
2022/04/19 06:40:09;;;;;;;3.40;3.10;;;8.30;99.90;;;;;;5075398;28;20215;-89
2022/04/19 06:42:37;;;;;;;2.83;2.58;;;8.30;99.90;;;;;;5074918;28;20352;-88
2022/04/19 06:45:06;;;;;;;2.85;2.65;;;8.20;99.90;;;;;;5075064;28;20272;-88
2022/04/19 06:47:35;;;;;;;3.38;3.08;;;8.20;99.90;;;;;;5074922;28;20272;-87
2022/04/19 06:50:03;;;;;;;4.30;3.40;;;8.10;99.90;;;;;;5075026;28;20289;-84
2022/04/19 06:52:32;;;;;;;7.60;3.30;;;7.90;99.90;;;;;;5074983;28;20308;-88
2022/04/19 06:55:00;;;;;;;3.40;2.80;;;7.70;99.90;;;;;;5075173;28;20882;-89
2022/04/19 06:57:30;;;;;;;3.83;3.30;;;7.70;99.90;;;;;;5074906;28;20205;-87
2022/04/19 07:00:00;;;;;;;3.70;2.97;;;7.60;99.90;;;;;;5074882;28;20250;-88
2022/04/19 07:02:28;;;;;;;3.75;2.90;;;7.60;99.90;;;;;;5074617;28;20236;-88
2022/04/19 07:04:57;;;;;;;3.85;3.55;;;7.60;99.90;;;;;;5074743;28;20232;-88
2022/04/19 07:07:25;;;;;;;3.85;3.03;;;7.50;99.90;;;;;;5074494;28;20302;-88
2022/04/19 07:09:53;;;;;;;3.30;3.00;;;7.30;99.90;;;;;;5074628;28;20232;-88
2022/04/19 07:12:22;;;;;;;3.50;3.20;;;7.30;99.90;;;;;;5074708;28;20224;-87
2022/04/19 07:14:52;;;;;;;4.40;3.95;;;7.10;99.90;;;;;;5074817;28;20201;-88
2022/04/19 07:17:20;;;;;;;3.75;3.47;;;7.10;99.90;;;;;;5074620;28;20201;-88
2022/04/19 07:28:06;;;;;;;12.07;4.85;;;6.90;99.90;;;;;;5074210;28;20244;-89
2022/04/19 07:30:36;;;;;;;4.45;4.05;;;6.80;99.90;;;;;;5074223;28;20291;-90
2022/04/19 07:33:32;;;;;;;4.18;3.88;;;6.80;99.90;;;;;;5074432;28;20212;-90
2022/04/19 07:36:16;;;;;;;4.28;3.88;;;6.80;99.90;;;;;;5032709;28;20266;-87
2022/04/19 07:38:45;;;;;;;4.55;4.20;;;6.80;99.90;;;;;;5032592;28;20209;-89
2022/04/19 07:41:18;;;;;;;5.57;4.65;;;6.90;99.90;;;;;;5031986;28;20275;-89
2022/04/19 07:43:48;;;;;;;4.38;4.03;;;6.80;99.90;;;;;;5032305;28;20210;-89
2022/04/19 07:46:21;;;;;;;3.95;3.65;;;6.90;99.90;;;;;;5032105;28;20210;-87
2022/04/19 07:48:51;;;;;;;4.28;3.97;;;6.90;99.90;;;;;;5031951;28;20281;-88
2022/04/19 07:51:20;;;;;;;4.90;4.45;;;7.00;99.90;;;;;;5031672;28;20300;-88
2022/04/19 07:53:49;;;;;;;3.92;3.20;;;7.10;99.90;;;;;;5032048;28;20206;-89
2022/04/19 07:56:19;;;;;;;3.90;3.60;;;7.10;99.90;;;;;;5032207;28;20202;-89
2022/04/19 07:58:48;;;;;;;4.20;3.90;;;7.20;99.90;;;;;;5031652;28;20229;-88
2022/04/19 08:01:18;;;;;;;5.05;4.63;;;7.20;99.90;;;;;;5030867;28;20341;-89
2022/04/19 08:03:47;;;;;;;3.78;3.45;;;7.10;99.90;;;;;;5031749;28;20290;-89
2022/04/19 08:06:15;;;;;;;5.32;3.83;;;7.10;99.90;;;;;;5031298;28;20234;-88
2022/04/19 08:08:44;;;;;;;4.28;3.88;;;7.10;99.90;;;;;;5031568;28;20245;-89
2022/04/19 08:11:20;;;;;;;4.35;3.97;;;7.20;99.90;;;;;;5031404;28;20249;-89
2022/04/19 08:14:09;;;;;;;4.75;4.35;;;7.30;99.90;;;;;;5055412;28;20291;-88
2022/04/19 08:16:50;;;;;;;5.78;4.82;;;7.40;99.90;;;;;;5073654;28;20212;-88
2022/04/19 08:19:19;;;;;;;4.85;4.38;;;7.50;99.90;;;;;;5073503;28;20209;-88
2022/04/19 08:21:52;;;;;;;5.60;4.30;;;7.70;99.90;;;;;;5073112;28;20235;-88
2022/04/19 08:24:20;;;;;;;4.28;3.95;;;7.80;99.90;;;;;;5073415;28;20209;-88
2022/04/19 08:26:49;;;;;;;4.53;4.05;;;7.90;99.90;;;;;;5073368;28;20209;-88
2022/04/19 08:29:18;;;;;;;4.88;4.38;;;7.90;99.90;;;;;;5073259;28;20233;-88
2022/04/19 08:31:51;;;;;;;5.13;3.67;;;7.90;99.90;;;;;;5073091;28;20237;-88
2022/04/19 08:34:20;;;;;;;4.22;3.83;;;7.80;99.90;;;;;;5073379;28;20215;-88
2022/04/19 08:36:48;;;;;;;6.30;4.72;;;7.80;99.90;;;;;;5073149;28;20204;-87
2022/04/19 08:39:18;;;;;;;4.53;4.15;;;7.90;99.90;;;;;;5073271;28;20257;-88
2022/04/19 08:41:50;;;;;;;4.07;3.75;;;8.00;99.90;;;;;;5072641;28;20295;-88
2022/04/19 08:44:20;;;;;;;4.57;4.20;;;8.10;99.90;;;;;;5073054;28;20205;-87
2022/04/19 08:46:50;;;;;;;4.88;4.43;;;8.20;99.90;;;;;;5072939;28;20297;-88
2022/04/19 08:49:18;;;;;;;5.60;4.03;;;8.10;99.90;;;;;;5072580;28;20309;-88
2022/04/19 08:51:47;;;;;;;4.93;4.40;;;8.00;99.90;;;;;;5072573;28;20452;-88
2022/04/19 08:59:47;;;;;;;4.68;4.28;;;7.60;99.90;;;;;;5072726;28;20198;-86
2022/04/19 09:02:24;;;;;;;5.05;4.57;;;7.70;99.90;;;;;;5072678;28;20252;-86
2022/04/19 09:04:53;;;;;;;5.10;4.63;;;7.60;99.90;;;;;;5073151;28;20213;-86
2022/04/19 09:07:37;;;;;;;5.72;4.75;;;7.70;99.90;;;;;;5072840;28;20207;-86
2022/04/19 09:10:07;;;;;;;4.50;4.10;;;7.90;99.90;;;;;;5072304;28;20235;-86
2022/04/19 09:12:35;;;;;;;4.72;4.32;;;7.90;99.90;;;;;;5072337;28;20243;-85
2022/04/19 09:15:06;;;;;;;7.30;5.35;;;7.90;99.90;;;;;;5072536;28;20264;-86
2022/04/19 09:17:39;;;;;;;4.38;4.05;;;8.00;99.90;;;;;;5072852;28;20201;-85
2022/04/19 09:20:12;;;;;;;4.05;3.72;;;8.10;99.90;;;;;;5072527;28;20283;-86
2022/04/19 09:22:42;;;;;;;4.25;3.80;;;8.20;99.90;;;;;;5072239;28;20229;-86
2022/04/19 09:25:24;;;;;;;4.38;3.97;;;8.20;99.90;;;;;;5072924;28;20201;-84
2022/04/19 09:27:54;;;;;;;5.57;4.80;;;8.30;99.90;;;;;;5072770;28;20201;-86
2022/04/19 09:30:24;;;;;;;5.10;4.57;;;8.30;99.90;;;;;;5072317;28;20228;-86
2022/04/19 09:33:06;;;;;;;5.47;4.10;;;8.40;99.90;;;;;;5072277;28;20201;-85
2022/04/19 09:35:36;;;;;;;5.60;5.03;;;8.40;99.90;;;;;;5072758;28;20203;-86
2022/04/19 09:38:06;;;;;;;4.63;4.25;;;8.40;99.90;;;;;;5072482;28;20205;-86
2022/04/19 09:40:36;;;;;;;5.13;4.38;;;8.30;99.90;;;;;;5072266;28;20221;-86
2022/04/19 09:43:12;;;;;;;4.70;4.25;;;8.30;99.90;;;;;;5072795;28;20201;-85
2022/04/19 09:45:52;;;;;;;5.07;4.57;;;8.30;99.90;;;;;;5072217;28;20212;-85
2022/04/19 09:48:24;;;;;;;5.30;4.07;;;8.20;99.90;;;;;;5072474;28;20209;-85
2022/04/19 09:50:58;;;;;;;3.70;3.40;;;8.20;99.90;;;;;;5072417;28;20224;-85
2022/04/19 09:53:28;;;;;;;4.57;4.18;;;8.00;99.90;;;;;;5072340;28;20233;-85
2022/04/19 09:55:58;;;;;;;4.18;3.88;;;7.90;99.90;;;;;;5072425;28;20267;-86
2022/04/19 09:58:28;;;;;;;5.68;4.25;;;7.80;99.90;;;;;;5072623;28;20193;-86
2022/04/19 10:00:57;;;;;;;4.88;4.47;;;7.60;99.90;;;;;;5072127;28;20225;-85
2022/04/19 10:09:01;;;;;;;10.38;5.18;;;7.40;99.90;;;;;;5072648;28;20232;-86
2022/04/19 10:11:35;;;;;;;5.47;4.95;;;7.30;99.90;;;;;;5072198;28;20266;-87
2022/04/19 10:14:06;;;;;;;5.32;4.93;;;7.20;99.90;;;;;;5072312;28;20205;-88
2022/04/19 10:16:48;;;;;;;4.63;4.18;;;7.20;99.90;;;;;;5072186;28;20233;-87
2022/04/19 10:19:27;;;;;;;4.88;4.50;;;7.10;99.90;;;;;;5072660;28;20212;-87
2022/04/19 10:22:06;;;;;;;5.40;4.97;;;7.10;99.90;;;;;;5072171;28;20225;-87
2022/04/19 10:24:46;;;;;;;4.82;4.53;;;7.10;99.90;;;;;;5075648;28;20235;-86
2022/04/19 10:27:18;;;;;;;5.22;4.75;;;7.00;99.90;;;;;;5075278;28;20258;-86
2022/04/19 10:29:47;;;;;;;5.32;4.68;;;7.00;99.90;;;;;;5075792;28;20217;-87
2022/04/19 10:32:30;;;;;;;5.97;5.47;;;7.00;99.90;;;;;;5075341;28;20245;-87
2022/04/19 10:35:03;;;;;;;7.13;5.85;;;7.00;99.90;;;;;;5075671;28;20258;-87
2022/04/19 10:37:34;;;;;;;7.15;4.28;;;7.10;99.90;;;;;;5075479;28;20211;-87
2022/04/19 10:40:10;;;;;;;4.55;4.22;;;7.10;99.90;;;;;;5075030;28;20209;-87
2022/04/19 10:42:42;;;;;;;5.47;4.97;;;7.00;99.90;;;;;;5075253;28;20229;-88
2022/04/19 10:45:25;;;;;;;5.00;4.57;;;7.00;99.90;;;;;;5075437;28;20205;-87
2022/04/19 10:48:05;;;;;;;14.80;5.35;;;7.00;99.90;;;;;;5075674;28;20251;-87
2022/04/19 10:50:39;;;;;;;4.97;4.57;;;7.00;99.90;;;;;;5074637;28;20230;-87
2022/04/19 10:53:10;;;;;;;5.28;4.85;;;7.00;99.90;;;;;;5075252;28;20255;-86
2022/04/19 10:55:39;;;;;;;4.80;4.15;;;6.90;99.90;;;;;;5075131;28;20208;-87
2022/04/19 10:58:20;;;;;;;4.38;3.97;;;6.80;99.90;;;;;;5074940;28;20208;-86
2022/04/19 11:00:59;;;;;;;4.18;3.88;;;6.70;99.90;;;;;;5074703;28;20221;-85
2022/04/19 11:03:49;;;;;;;4.93;4.07;;;6.60;99.90;;;;;;5075029;28;20205;-85
2022/04/19 11:06:35;;;;;;;5.28;4.78;;;6.50;99.90;;;;;;5074800;28;20205;-85
2022/04/19 11:09:29;;;;;;;4.55;4.20;;;6.50;99.90;;;;;;5074563;28;20293;-85
2022/04/19 11:12:11;;;;;;;4.43;4.10;;;6.50;99.90;;;;;;5074335;28;20229;-85
2022/04/19 11:14:41;;;;;;;6.45;5.25;;;6.50;99.90;;;;;;5074749;28;20205;-85
2022/04/19 11:17:24;;;;;;;4.63;4.30;;;6.50;99.90;;;;;;5074556;28;20207;-85
2022/04/19 11:20:15;;;;;;;5.40;4.90;;;6.60;99.90;;;;;;5074492;28;20226;-85
2022/04/19 11:22:53;;;;;;;4.45;4.15;;;6.70;99.90;;;;;;5074279;28;20232;-85
2022/04/19 11:25:39;;;;;;;4.88;4.47;;;6.70;99.90;;;;;;5074485;28;20250;-85
2022/04/19 11:28:28;;;;;;;4.30;3.88;;;6.80;99.90;;;;;;5074428;28;20201;-85
2022/04/19 11:31:15;;;;;;;4.75;4.35;;;6.90;99.90;;;;;;5074227;28;20288;-85
2022/04/19 11:33:44;;;;;;;4.13;3.83;;;6.90;99.90;;;;;;5074063;28;20204;-85
2022/04/19 11:36:15;;;;;;;3.72;3.40;;;6.90;99.90;;;;;;5073577;28;20208;-84
2022/04/19 11:38:47;;;;;;;4.07;3.67;;;6.90;99.90;;;;;;5074440;28;20211;-85
2022/04/19 11:46:58;;;;;;;5.43;4.78;;;6.80;99.90;;;;;;5074103;28;20205;-84
2022/04/19 11:49:34;;;;;;;4.35;4.05;;;6.80;99.90;;;;;;5073968;28;20201;-85
2022/04/19 11:52:08;;;;;;;6.15;4.22;;;6.80;99.90;;;;;;5073440;28;20228;-84
2022/04/19 11:54:41;;;;;;;5.82;5.22;;;6.70;99.90;;;;;;5073914;28;20212;-84
2022/04/19 11:57:11;;;;;;;5.13;4.63;;;6.70;99.90;;;;;;5074137;28;20211;-85
2022/04/19 11:59:43;;;;;;;4.97;4.60;;;6.60;99.90;;;;;;5073802;28;20201;-85
2022/04/19 12:02:15;;;;;;;6.43;5.40;;;6.60;99.90;;;;;;5073399;28;20225;-85
2022/04/19 12:04:52;;;;;;;11.73;5.63;;;6.50;99.90;;;;;;5073870;28;20213;-84
2022/04/19 12:07:22;;;;;;;5.78;5.05;;;6.50;99.90;;;;;;5073623;28;20214;-84
2022/04/19 12:09:53;;;;;;;5.40;4.95;;;6.50;99.90;;;;;;5073753;28;20211;-84
2022/04/19 12:12:22;;;;;;;5.15;4.15;;;6.40;99.90;;;;;;5073289;28;20304;-84
2022/04/19 12:14:52;;;;;;;5.03;4.63;;;6.40;99.90;;;;;;5073481;28;20459;-84
2022/04/19 12:17:25;;;;;;;4.07;3.78;;;6.30;99.90;;;;;;5073601;28;20215;-84
2022/04/19 12:20:06;;;;;;;4.95;4.53;;;6.30;99.90;;;;;;5073205;28;20336;-84
2022/04/19 12:22:35;;;;;;;5.47;4.97;;;6.30;99.90;;;;;;5072977;28;20223;-84
2022/04/19 12:25:06;;;;;;;5.35;4.95;;;6.40;99.90;;;;;;5073807;28;20228;-84
2022/04/19 12:27:37;;;;;;;4.50;4.20;;;6.40;99.90;;;;;;5073456;28;20242;-84
2022/04/19 12:30:09;;;;;;;7.38;5.07;;;6.40;99.90;;;;;;5073377;28;20217;-84
2022/04/19 12:32:54;;;;;;;4.32;4.03;;;6.40;99.90;;;;;;5072643;28;20229;-84
2022/04/19 12:35:34;;;;;;;5.00;4.60;;;6.40;99.90;;;;;;5073142;28;20204;-84
2022/04/19 12:38:07;;;;;;;4.38;4.03;;;6.50;99.90;;;;;;5073329;28;20201;-84
2022/04/19 12:40:54;;;;;;;6.05;5.45;;;6.50;99.90;;;;;;5072984;28;20200;-85
2022/04/19 12:43:43;;;;;;;5.18;4.68;;;6.50;99.90;;;;;;5073624;28;20225;-85
2022/04/19 12:46:27;;;;;;;5.57;5.13;;;6.40;99.90;;;;;;5072536;28;20212;-84
2022/04/19 12:49:00;;;;;;;5.88;5.35;;;6.40;99.90;;;;;;5072865;28;20201;-85
2022/04/19 12:51:57;;;;;;;4.70;4.30;;;6.40;99.90;;;;;;5072591;28;20259;-85
2022/04/19 12:54:32;;;;;;;5.15;4.72;;;6.40;99.90;;;;;;5073356;28;20335;-85
2022/04/19 12:57:07;;;;;;;4.35;4.05;;;6.30;99.90;;;;;;5073114;28;20204;-85
2022/04/19 12:59:35;;;;;;;3.78;3.58;;;6.30;99.90;;;;;;5073339;28;20209;-85
2022/04/19 13:02:09;;;;;;;4.43;4.13;;;6.30;99.90;;;;;;5073099;28;20231;-84
2022/04/19 13:04:43;;;;;;;4.38;4.00;;;6.30;99.90;;;;;;5072844;28;20196;-85
2022/04/19 13:14:25;;;;;;;4.38;4.07;;;6.30;99.90;;;;;;5050015;28;20202;-86
2022/04/19 13:20:43;;;;;;;10.10;4.75;;;6.30;99.90;;;;;;5119778;22;20207;-84
2022/04/19 13:23:17;;;;;;;5.57;5.03;;;6.30;99.90;;;;;;5031976;28;20202;-84
2022/04/19 13:25:46;;;;;;;5.45;4.95;;;6.30;99.90;;;;;;5032160;28;20210;-87
2022/04/19 13:32:15;;;;;;;4.75;4.35;;;6.20;99.90;;;;;;4970985;28;20275;-86
2022/04/19 13:34:57;;;;;;;;;;;;;;;;;;;;;
2022/04/19 13:40:20;;;;;;;4.07;3.78;;;6.20;99.90;;;;;;5031833;28;20209;-85
2022/04/19 13:42:48;;;;;;;5.65;5.07;;;6.20;99.90;;;;;;5031552;28;20218;-85
2022/04/19 13:45:18;;;;;;;4.95;4.55;;;6.10;99.90;;;;;;5031676;28;20190;-86
2022/04/19 13:47:49;;;;;;;4.53;4.13;;;6.00;99.90;;;;;;5031817;28;20242;-84
2022/04/19 13:50:17;;;;;;;5.05;4.65;;;6.00;99.90;;;;;;5032079;28;20206;-83
2022/04/19 13:52:45;;;;;;;8.18;5.10;;;6.00;99.90;;;;;;5031950;28;20325;-84
2022/04/19 13:55:18;;;;;;;6.25;5.65;;;6.00;99.90;;;;;;5031868;28;20289;-83
2022/04/19 13:57:48;;;;;;;6.43;5.30;;;6.00;99.90;;;;;;5032778;28;20211;-83
2022/04/19 14:00:17;;;;;;;6.65;5.88;;;6.10;99.90;;;;;;5035844;28;20217;-91
2022/04/19 14:02:46;;;;;;;5.57;5.07;;;6.20;99.90;;;;;;5035967;28;20295;-91
2022/04/19 14:05:16;;;;;;;7.50;6.00;;;6.20;99.90;;;;;;5035604;28;20206;-91
2022/04/19 14:07:44;;;;;;;5.53;5.13;;;6.30;99.90;;;;;;5035677;28;20273;-91
2022/04/19 14:10:12;;;;;;;6.25;5.72;;;6.30;99.90;;;;;;5036317;28;20230;-92
2022/04/19 14:12:46;;;;;;;6.20;5.70;;;6.30;99.90;;;;;;5037725;28;20234;-92
2022/04/19 14:15:14;;;;;;;6.38;5.88;;;6.30;99.90;;;;;;5040143;28;20238;-92